Time;durP1;ratioP1;P1;durP2;ratioP2;P2;SDS_P1;SDS_P2;PMS_P1;PMS_P2;Temp;Humidity;BMP_temperature;BMP_pressure;BME280_temperature;BME280_humidity;BME280_pressure;Samples;Min_cycle;Max_cycle;Signal;HPM_P1;HPM_P2
2022/10/11 00:01:56;;;;;;;8.70;2.10;;;9.50;84.80;;;;;;5093660;28;20024;-27
2022/10/11 00:04:21;;;;;;;6.80;2.00;;;9.50;84.70;;;;;;5093189;28;20660;-27
2022/10/11 00:06:47;;;;;;;7.93;2.03;;;9.50;84.60;;;;;;5093275;28;20031;-29
2022/10/11 00:09:13;;;;;;;5.82;1.88;;;9.50;84.60;;;;;;5093649;28;20024;-29
2022/10/11 00:11:39;;;;;;;6.45;2.00;;;9.50;84.50;;;;;;5093265;28;20362;-32
2022/10/11 00:14:05;;;;;;;6.40;1.90;;;9.50;84.50;;;;;;5093177;28;20020;-33
2022/10/11 00:16:31;;;;;;;4.45;1.60;;;9.50;84.50;;;;;;5093289;28;20057;-28
2022/10/11 00:18:56;;;;;;;7.07;1.55;;;9.50;84.50;;;;;;5093314;28;20103;-28
2022/10/11 00:21:22;;;;;;;5.53;1.67;;;9.50;84.50;;;;;;5093400;28;20024;-27
2022/10/11 00:23:48;;;;;;;7.25;2.10;;;9.50;84.50;;;;;;5092982;28;20484;-41
2022/10/11 00:26:14;;;;;;;7.85;1.80;;;9.50;84.50;;;;;;5093171;28;20133;-41
2022/10/11 00:28:40;;;;;;;8.15;1.75;;;9.50;84.40;;;;;;5093069;28;20016;-28
2022/10/11 00:31:08;;;;;;;7.15;1.70;;;9.60;84.50;;;;;;5092611;28;20078;-28
2022/10/11 00:33:34;;;;;;;6.15;1.77;;;9.50;84.30;;;;;;5074296;28;20040;-38
2022/10/11 00:36:00;;;;;;;6.25;1.90;;;9.50;84.40;;;;;;5093021;28;20013;-46
2022/10/11 00:38:25;;;;;;;7.43;1.77;;;9.50;84.40;;;;;;5074608;28;20028;-25
2022/10/11 00:40:51;;;;;;;5.55;1.90;;;9.40;84.40;;;;;;5093121;28;20475;-25
2022/10/11 00:43:19;;;;;;;6.40;2.00;;;9.40;84.40;;;;;;5092899;28;20063;-27
2022/10/11 00:46:17;;;;;;;3.38;1.77;;;9.30;84.40;;;;;;5092869;28;20069;-25
2022/10/11 00:48:49;;;;;;;3.80;1.50;;;9.30;84.40;;;;;;5092674;28;20039;-27
2022/10/11 00:51:35;;;;;;;5.13;1.90;;;9.30;84.50;;;;;;5092921;28;20437;-25
2022/10/11 00:54:02;;;;;;;3.70;1.80;;;9.30;84.50;;;;;;5092926;28;20493;-25
2022/10/11 00:56:32;;;;;;;6.80;2.03;;;9.20;84.60;;;;;;5092871;28;20521;-30
2022/10/11 00:59:01;;;;;;;5.78;2.30;;;9.20;84.60;;;;;;5093020;28;20511;-25
2022/10/11 01:01:27;;;;;;;5.70;2.33;;;9.20;84.70;;;;;;5092642;28;20024;-25
2022/10/11 01:03:53;;;;;;;7.88;2.75;;;9.20;84.70;;;;;;5092167;28;20028;-26
2022/10/11 01:06:18;;;;;;;4.28;2.25;;;9.20;84.80;;;;;;5092802;28;20028;-25
2022/10/11 01:08:44;;;;;;;8.63;2.42;;;9.20;84.90;;;;;;5092319;28;20091;-27
2022/10/11 01:11:14;;;;;;;7.82;2.30;;;9.20;84.90;;;;;;5092255;28;20032;-28
2022/10/11 01:14:09;;;;;;;5.30;2.05;;;9.20;84.90;;;;;;5091933;28;20058;-29
2022/10/11 01:17:00;;;;;;;4.47;2.30;;;9.20;85.00;;;;;;5091815;28;20028;-27
2022/10/11 01:19:50;;;;;;;6.82;2.22;;;9.20;84.90;;;;;;5091850;28;20108;-42
2022/10/11 01:22:35;;;;;;;7.30;2.22;;;9.10;84.80;;;;;;5091692;28;20028;-29
2022/10/11 01:25:18;;;;;;;6.25;2.53;;;9.10;84.90;;;;;;5091807;28;20048;-25
2022/10/11 01:27:47;;;;;;;7.22;2.45;;;9.10;85.00;;;;;;5091772;28;20016;-25
2022/10/11 01:30:15;;;;;;;5.53;2.50;;;9.10;85.00;;;;;;5091726;28;20030;-25
2022/10/11 01:32:56;;;;;;;5.95;2.53;;;9.10;85.00;;;;;;5091558;28;20024;-32
2022/10/11 01:35:44;;;;;;;6.18;2.63;;;9.10;85.10;;;;;;5091754;28;20028;-25
2022/10/11 01:38:22;;;;;;;4.70;2.53;;;9.00;85.10;;;;;;5091497;28;20020;-35
2022/10/11 01:40:58;;;;;;;5.40;2.88;;;9.00;85.10;;;;;;5091400;28;20429;-32
2022/10/11 01:43:26;;;;;;;6.03;2.95;;;9.00;85.10;;;;;;5090864;28;20021;-32
2022/10/11 01:45:55;;;;;;;7.13;3.17;;;9.00;85.10;;;;;;5092002;28;20432;-32
2022/10/11 01:48:20;;;;;;;7.20;3.08;;;9.00;85.20;;;;;;5091657;28;20099;-32
2022/10/11 01:50:57;;;;;;;6.75;3.13;;;9.00;85.30;;;;;;5091419;28;20529;-40
2022/10/11 01:53:51;;;;;;;6.80;3.17;;;9.00;85.40;;;;;;5091477;28;20028;-38
2022/10/11 01:56:23;;;;;;;;;;;8.90;85.40;;;;;;5092002;28;20047;-29
2022/10/11 01:59:20;;;;;;;7.43;3.22;;;8.90;85.30;;;;;;5091589;28;19987;-29
2022/10/11 02:02:22;;;;;;;5.32;3.00;;;8.90;85.30;;;;;;5091640;28;20024;-33
2022/10/11 02:05:07;;;;;;;7.20;2.90;;;8.90;85.40;;;;;;5091309;28;20055;-26
2022/10/11 02:07:39;;;;;;;5.05;2.88;;;8.90;85.40;;;;;;5091559;28;20526;-29
2022/10/11 02:10:13;;;;;;;7.45;3.10;;;8.80;85.50;;;;;;5091652;28;20028;-27
2022/10/11 02:12:46;;;;;;;5.32;2.90;;;8.80;85.50;;;;;;5091323;28;20027;-27
2022/10/11 02:15:14;;;;;;;6.25;2.85;;;8.80;85.50;;;;;;5091058;28;20083;-30
2022/10/11 02:17:46;;;;;;;4.93;2.92;;;8.80;85.50;;;;;;5090169;28;20035;-26
2022/10/11 02:20:16;;;;;;;4.55;2.47;;;8.80;85.50;;;;;;5091208;28;20111;-29
2022/10/11 02:22:44;;;;;;;7.03;2.50;;;8.80;85.50;;;;;;5090908;28;20016;-28
2022/10/11 02:25:18;;;;;;;3.63;2.15;;;8.70;85.40;;;;;;5090879;28;20518;-28
2022/10/11 02:27:45;;;;;;;5.63;2.50;;;8.70;85.40;;;;;;5090849;28;20115;-39
2022/10/11 02:30:11;;;;;;;6.85;2.50;;;8.60;85.40;;;;;;5090837;28;20490;-37
2022/10/11 02:32:40;;;;;;;4.30;2.05;;;8.60;85.40;;;;;;5090742;28;20055;-25
2022/10/11 02:35:08;;;;;;;6.00;2.45;;;8.50;85.30;;;;;;5091021;28;20402;-25
2022/10/11 02:38:23;;;;;;;3.95;1.73;;;8.50;85.30;;;;;;5090870;28;20435;-30
2022/10/11 02:40:56;;;;;;;5.30;2.25;;;8.50;85.30;;;;;;5087350;28;20395;-29
2022/10/11 02:43:22;;;;;;;;;;;8.40;85.30;;;;;;5091117;28;20103;-26
2022/10/11 02:46:02;;;;;;;6.43;2.25;;;8.40;85.30;;;;;;5091131;28;20313;-25
2022/10/11 02:48:29;;;;;;;4.03;2.10;;;8.40;85.30;;;;;;5090874;28;20077;-25
2022/10/11 02:50:56;;;;;;;6.60;2.60;;;8.30;85.20;;;;;;5090940;28;20448;-25
2022/10/11 02:53:22;;;;;;;7.65;2.50;;;8.30;85.80;;;;;;5092654;28;20027;-28
2022/10/11 02:55:50;;;;;;;5.25;2.55;;;8.30;85.20;;;;;;5095017;28;20150;-41
2022/10/11 02:58:15;;;;;;;8.18;2.90;;;8.30;85.20;;;;;;5095179;28;20643;-27
2022/10/11 03:00:41;;;;;;;5.28;2.40;;;8.30;85.20;;;;;;5094635;28;20028;-28
2022/10/11 03:03:07;;;;;;;4.65;2.85;;;8.20;85.10;;;;;;5094605;28;20036;-29
2022/10/11 03:05:39;;;;;;;6.25;2.58;;;8.20;85.10;;;;;;5094448;28;20549;-40
2022/10/11 03:08:09;;;;;;;3.95;2.30;;;8.20;85.10;;;;;;5094454;28;20020;-40
2022/10/11 03:10:35;;;;;;;3.78;2.28;;;8.20;85.10;;;;;;5094804;28;20093;-42
2022/10/11 03:13:01;;;;;;;4.70;2.83;;;8.20;85.10;;;;;;5094781;28;20031;-39
2022/10/11 03:15:26;;;;;;;7.70;2.65;;;8.20;85.00;;;;;;5094806;28;20032;-41
2022/10/11 03:17:52;;;;;;;7.38;2.97;;;8.20;85.00;;;;;;5094589;28;20028;-40
2022/10/11 03:20:18;;;;;;;4.28;2.83;;;8.20;85.00;;;;;;5094538;28;20383;-26
2022/10/11 03:22:44;;;;;;;4.82;2.42;;;8.20;85.00;;;;;;5094466;28;20024;-28
2022/10/11 03:25:09;;;;;;;5.00;2.30;;;8.20;85.00;;;;;;5094536;28;20068;-27
2022/10/11 03:27:35;;;;;;;7.90;2.65;;;8.30;85.00;;;;;;5094622;28;20460;-27
2022/10/11 03:30:02;;;;;;;4.93;2.50;;;8.30;85.00;;;;;;5094413;28;20026;-29
2022/10/11 03:32:28;;;;;;;5.75;2.00;;;8.30;84.90;;;;;;5094307;28;20486;-27
2022/10/11 03:34:53;;;;;;;5.50;2.20;;;8.40;84.90;;;;;;5094269;28;20020;-27
2022/10/11 03:37:19;;;;;;;4.63;2.30;;;8.50;84.90;;;;;;5094421;28;20107;-35
2022/10/11 03:39:45;;;;;;;4.63;1.98;;;8.50;84.70;;;;;;5094002;28;20054;-43
2022/10/11 03:42:11;;;;;;;7.78;2.20;;;8.50;84.60;;;;;;5094095;28;20036;-38
2022/10/11 03:44:37;;;;;;;4.50;2.08;;;8.60;84.60;;;;;;5094192;28;20032;-25
2022/10/11 03:47:04;;;;;;;6.22;2.13;;;8.60;84.60;;;;;;5094411;28;20020;-26
2022/10/11 03:49:29;;;;;;;5.68;2.03;;;8.60;84.50;;;;;;5094096;28;20069;-29
2022/10/11 03:51:55;;;;;;;5.80;2.45;;;8.60;84.60;;;;;;5094215;28;20475;-40
2022/10/11 03:54:20;;;;;;;8.65;2.30;;;8.60;84.60;;;;;;5094282;28;20463;-41
2022/10/11 03:56:46;;;;;;;5.40;2.40;;;8.60;84.60;;;;;;5093843;28;20036;-25
2022/10/11 03:59:12;;;;;;;5.50;2.10;;;8.60;85.30;;;;;;5093632;28;20377;-27
2022/10/11 04:01:37;;;;;;;6.55;2.40;;;8.60;84.70;;;;;;5093692;28;20028;-39
2022/10/11 04:04:04;;;;;;;5.60;2.35;;;8.70;84.70;;;;;;5092907;28;20024;-32
2022/10/11 04:06:30;;;;;;;3.88;2.40;;;8.70;84.70;;;;;;5092763;28;20036;-32
2022/10/11 04:08:55;;;;;;;8.45;3.08;;;8.70;84.70;;;;;;5093337;28;20221;-33
2022/10/11 04:11:21;;;;;;;2.88;2.33;;;8.70;84.70;;;;;;5075218;28;20476;-27
2022/10/11 04:13:46;;;;;;;4.32;2.50;;;8.70;84.70;;;;;;5093586;28;20455;-25
2022/10/11 04:16:12;;;;;;;4.70;2.45;;;8.70;84.70;;;;;;5094036;28;20020;-43
2022/10/11 04:18:37;;;;;;;5.68;2.20;;;8.80;84.60;;;;;;5075410;28;20027;-40
2022/10/11 04:21:03;;;;;;;6.00;2.60;;;8.80;84.60;;;;;;5093207;28;20522;-32
2022/10/11 04:23:32;;;;;;;4.60;2.40;;;8.80;84.60;;;;;;5093622;28;20020;-31
2022/10/11 04:25:58;;;;;;;6.28;2.53;;;8.90;84.60;;;;;;5093219;28;20099;-33
2022/10/11 04:28:24;;;;;;;4.45;2.40;;;8.90;84.60;;;;;;5092970;28;20063;-30
2022/10/11 04:30:51;;;;;;;5.95;2.78;;;8.90;84.60;;;;;;5093168;28;20472;-29
2022/10/11 04:33:16;;;;;;;5.95;2.45;;;8.90;84.70;;;;;;5093013;28;20024;-28
2022/10/11 04:35:42;;;;;;;5.78;2.70;;;8.90;84.70;;;;;;5092836;28;20016;-29
2022/10/11 04:38:07;;;;;;;6.70;2.58;;;8.90;84.70;;;;;;5092642;28;20507;-41
2022/10/11 04:40:33;;;;;;;6.15;2.90;;;9.00;84.70;;;;;;5074397;28;20074;-46
2022/10/11 04:42:59;;;;;;;7.32;3.30;;;9.00;84.60;;;;;;5092647;28;20016;-42
2022/10/11 04:45:25;;;;;;;5.20;2.75;;;9.00;84.70;;;;;;5092600;28;20031;-38
2022/10/11 04:47:51;;;;;;;6.20;3.00;;;9.10;84.70;;;;;;5092618;28;20088;-42
2022/10/11 04:50:16;;;;;;;5.65;2.55;;;9.10;84.70;;;;;;5092795;28;20073;-43
2022/10/11 04:52:42;;;;;;;5.65;2.38;;;9.10;84.70;;;;;;5092716;28;20020;-42
2022/10/11 04:55:08;;;;;;;5.00;2.10;;;9.00;84.70;;;;;;5092690;28;20031;-40
2022/10/11 04:57:34;;;;;;;5.10;2.28;;;9.00;84.70;;;;;;5092509;28;20016;-25
2022/10/11 04:59:59;;;;;;;5.13;2.35;;;8.90;84.80;;;;;;5092277;28;20046;-41
2022/10/11 05:02:25;;;;;;;7.53;2.63;;;8.90;84.90;;;;;;5092459;28;20022;-32
2022/10/11 05:04:50;;;;;;;6.03;2.75;;;8.90;85.00;;;;;;5092385;28;20052;-37
2022/10/11 05:07:16;;;;;;;9.05;2.92;;;8.80;85.10;;;;;;5092208;28;20471;-34
2022/10/11 05:09:41;;;;;;;5.25;2.80;;;8.80;85.70;;;;;;5092214;28;20120;-34
2022/10/11 05:12:07;;;;;;;5.72;2.20;;;8.80;85.20;;;;;;5091993;28;20020;-34
2022/10/11 05:14:33;;;;;;;4.53;2.60;;;8.70;85.20;;;;;;5091867;28;20032;-29
2022/10/11 05:16:58;;;;;;;8.48;2.90;;;8.70;85.20;;;;;;5091695;28;20095;-26
2022/10/11 05:19:24;;;;;;;6.25;2.60;;;8.70;85.30;;;;;;5091960;28;20028;-42
2022/10/11 05:21:49;;;;;;;5.80;2.55;;;8.70;85.30;;;;;;5073663;28;20023;-43
2022/10/11 05:24:15;;;;;;;5.43;2.60;;;8.70;85.40;;;;;;5091477;28;20040;-32
2022/10/11 05:26:41;;;;;;;8.65;2.90;;;8.70;85.40;;;;;;5091953;28;20016;-34
2022/10/11 05:29:06;;;;;;;6.35;2.83;;;8.60;85.40;;;;;;5092031;28;20516;-33
2022/10/11 05:31:32;;;;;;;6.72;2.80;;;8.60;85.40;;;;;;5073424;28;20028;-34
2022/10/11 05:33:58;;;;;;;5.85;2.40;;;8.60;85.40;;;;;;5092028;28;20069;-34
2022/10/11 05:36:24;;;;;;;5.78;2.78;;;8.60;85.40;;;;;;5091740;28;20020;-34
2022/10/11 05:38:50;;;;;;;7.68;2.55;;;8.60;85.40;;;;;;5091602;28;20028;-33
2022/10/11 05:41:16;;;;;;;7.05;2.30;;;8.50;85.40;;;;;;5073457;28;20114;-33
2022/10/11 05:43:43;;;;;;;4.13;2.15;;;8.50;85.40;;;;;;5091782;28;20019;-34
2022/10/11 05:46:09;;;;;;;5.05;2.20;;;8.50;85.50;;;;;;5091420;28;20153;-32
2022/10/11 05:48:35;;;;;;;6.03;2.22;;;8.40;85.50;;;;;;5091409;28;20099;-37
2022/10/11 05:51:03;;;;;;;5.13;2.25;;;8.40;85.40;;;;;;5091897;28;20149;-32
2022/10/11 05:53:29;;;;;;;5.30;2.30;;;8.40;85.40;;;;;;5073238;28;20024;-32
2022/10/11 05:55:55;;;;;;;7.75;2.30;;;8.40;85.50;;;;;;5091656;28;20028;-32
2022/10/11 05:58:21;;;;;;;5.55;2.47;;;8.40;85.40;;;;;;5091738;28;20023;-32
2022/10/11 06:00:46;;;;;;;5.95;2.65;;;8.40;85.40;;;;;;5091122;28;20023;-32
2022/10/11 06:03:14;;;;;;;4.45;2.60;;;8.30;85.40;;;;;;5091318;28;20024;-32
2022/10/11 06:05:39;;;;;;;6.00;2.38;;;8.30;85.40;;;;;;5091261;28;20090;-32
2022/10/11 06:08:07;;;;;;;7.60;3.00;;;8.30;85.40;;;;;;5091475;28;20024;-33
2022/10/11 06:10:33;;;;;;;5.20;2.40;;;8.30;85.40;;;;;;5073029;28;20032;-32
2022/10/11 06:12:59;;;;;;;3.70;2.40;;;8.30;85.40;;;;;;5091104;28;20085;-32
2022/10/11 06:15:24;;;;;;;6.07;2.78;;;8.30;85.30;;;;;;5091264;28;20127;-32
2022/10/11 06:17:50;;;;;;;4.90;2.30;;;8.30;85.30;;;;;;5091084;28;20499;-32
2022/10/11 06:20:16;;;;;;;5.45;2.70;;;8.40;85.30;;;;;;5091345;28;20486;-31
2022/10/11 06:22:41;;;;;;;5.68;2.60;;;8.40;85.90;;;;;;5090859;28;20095;-31
2022/10/11 06:25:07;;;;;;;5.70;2.65;;;8.40;85.30;;;;;;5090903;28;20553;-32
2022/10/11 06:27:33;;;;;;;8.77;4.65;;;8.50;85.30;;;;;;5092557;28;20428;-31
2022/10/11 06:29:59;;;;;;;6.05;3.65;;;8.50;85.20;;;;;;5098184;28;20072;-34
2022/10/11 06:32:24;;;;;;;9.63;3.70;;;8.60;85.30;;;;;;5097777;28;20020;-32
2022/10/11 06:34:50;;;;;;;8.25;3.90;;;8.60;85.20;;;;;;5097776;28;20117;-33
2022/10/11 06:37:15;;;;;;;6.43;3.10;;;8.70;85.20;;;;;;5097635;28;20036;-32
2022/10/11 06:39:41;;;;;;;5.28;3.00;;;8.70;85.10;;;;;;5097557;28;20031;-32
2022/10/11 06:42:11;;;;;;;6.32;3.03;;;8.80;85.10;;;;;;5097852;28;20460;-32
2022/10/11 06:44:37;;;;;;;7.75;3.30;;;8.80;85.10;;;;;;5097181;28;20016;-33
2022/10/11 06:47:05;;;;;;;6.55;3.03;;;8.90;85.10;;;;;;5097377;28;20024;-32
2022/10/11 06:49:31;;;;;;;3.30;2.50;;;9.00;85.10;;;;;;5097966;28;20383;-31
2022/10/11 06:51:56;;;;;;;8.07;3.05;;;9.00;85.10;;;;;;5097727;28;20024;-32
2022/10/11 06:54:22;;;;;;;4.20;2.92;;;9.00;85.00;;;;;;5097540;28;20024;-32
2022/10/11 06:56:48;;;;;;;4.75;3.15;;;9.10;85.10;;;;;;5096993;28;20016;-33
2022/10/11 06:59:13;;;;;;;6.38;3.03;;;9.10;85.10;;;;;;5097728;28;20032;-32
2022/10/11 07:01:40;;;;;;;4.68;2.70;;;9.20;85.10;;;;;;5097976;28;20024;-31
2022/10/11 07:04:07;;;;;;;6.30;2.90;;;9.20;85.10;;;;;;5097658;28;20035;-32
2022/10/11 07:06:36;;;;;;;5.28;3.28;;;9.30;85.10;;;;;;5097402;28;20035;-34
2022/10/11 07:09:02;;;;;;;5.68;3.00;;;9.40;85.10;;;;;;5097481;28;20031;-33
2022/10/11 07:11:28;;;;;;;5.90;3.13;;;9.40;84.90;;;;;;5097323;28;20020;-33
2022/10/11 07:13:56;;;;;;;4.97;2.97;;;9.50;85.50;;;;;;5097785;28;20375;-32
2022/10/11 07:16:22;;;;;;;5.53;2.95;;;9.60;84.80;;;;;;5097618;28;20020;-33
2022/10/11 07:18:52;;;;;;;8.07;3.28;;;9.60;84.70;;;;;;5097678;28;20021;-32
2022/10/11 07:21:18;;;;;;;4.10;2.80;;;9.70;84.70;;;;;;5097012;28;20035;-32
2022/10/11 07:23:43;;;;;;;5.75;3.40;;;9.70;84.70;;;;;;5097239;28;20023;-30
2022/10/11 07:26:10;;;;;;;5.13;2.70;;;9.80;84.70;;;;;;5097389;28;20016;-32
2022/10/11 07:28:37;;;;;;;4.45;2.90;;;9.90;84.60;;;;;;5097280;28;20074;-32
2022/10/11 07:31:07;;;;;;;4.25;2.95;;;9.90;84.60;;;;;;5097274;28;20361;-31
2022/10/11 07:33:32;;;;;;;4.40;2.92;;;9.90;84.50;;;;;;5097132;28;20023;-32
2022/10/11 07:35:58;;;;;;;5.15;3.38;;;10.00;84.60;;;;;;5097461;28;20074;-32
2022/10/11 07:38:24;;;;;;;6.75;3.45;;;10.00;84.60;;;;;;5097142;28;20032;-32
2022/10/11 07:40:51;;;;;;;5.38;3.38;;;10.00;84.50;;;;;;5094014;28;20372;-34
2022/10/11 07:43:16;;;;;;;5.13;2.90;;;10.00;84.60;;;;;;5075836;28;20020;-33
2022/10/11 07:45:46;;;;;;;4.70;3.30;;;10.00;84.60;;;;;;5076311;28;20016;-34
2022/10/11 07:48:12;;;;;;;4.88;3.10;;;10.00;84.60;;;;;;5094272;28;20127;-33
2022/10/11 07:50:37;;;;;;;7.25;4.13;;;10.10;84.60;;;;;;5094204;28;20028;-32
2022/10/11 07:53:03;;;;;;;5.53;3.22;;;10.10;84.50;;;;;;5094261;28;20020;-34
2022/10/11 07:55:32;;;;;;;7.70;3.72;;;10.10;84.50;;;;;;5094292;28;20041;-35
2022/10/11 07:57:58;;;;;;;4.82;2.97;;;10.10;84.40;;;;;;5093938;28;20028;-33
2022/10/11 08:00:24;;;;;;;5.10;3.53;;;10.20;84.50;;;;;;5093860;28;20024;-32
2022/10/11 08:02:49;;;;;;;8.23;3.97;;;10.20;84.40;;;;;;5094405;28;20030;-33
2022/10/11 08:05:15;;;;;;;6.13;3.60;;;10.30;84.40;;;;;;5094088;28;20035;-33
2022/10/11 08:07:41;;;;;;;8.15;3.80;;;10.30;84.40;;;;;;5094292;28;20016;-34
2022/10/11 08:10:07;;;;;;;6.72;3.42;;;10.30;84.30;;;;;;5093743;28;20412;-33
2022/10/11 08:12:33;;;;;;;5.30;3.45;;;10.40;84.30;;;;;;5093600;28;20063;-33
2022/10/11 08:14:59;;;;;;;9.40;3.63;;;10.50;84.30;;;;;;5093560;28;20020;-34
2022/10/11 08:17:25;;;;;;;5.90;3.17;;;10.50;84.20;;;;;;5093451;28;20074;-33
2022/10/11 08:19:50;;;;;;;6.40;3.05;;;10.60;84.20;;;;;;5093267;28;20027;-35
2022/10/11 08:22:16;;;;;;;6.20;3.10;;;10.60;84.00;;;;;;5093516;28;20048;-34
2022/10/11 08:24:42;;;;;;;6.57;3.03;;;10.70;84.00;;;;;;5093436;28;20091;-34
2022/10/11 08:27:08;;;;;;;8.43;3.47;;;10.70;83.90;;;;;;5075398;28;20099;-32
2022/10/11 08:29:33;;;;;;;5.82;3.33;;;10.70;83.90;;;;;;5092960;28;20031;-33
2022/10/11 08:31:59;;;;;;;8.13;3.15;;;10.80;83.90;;;;;;5092868;28;20036;-35
2022/10/11 08:34:25;;;;;;;6.13;3.25;;;10.80;83.90;;;;;;5093063;28;20024;-32
2022/10/11 08:36:51;;;;;;;5.38;2.95;;;10.80;83.80;;;;;;5092947;28;20024;-33
2022/10/11 08:39:16;;;;;;;7.90;2.80;;;10.90;83.70;;;;;;5092814;28;20028;-33
2022/10/11 08:41:45;;;;;;;6.63;2.45;;;10.90;83.70;;;;;;5093205;28;20028;-35
2022/10/11 08:44:34;;;;;;;7.43;2.90;;;10.90;83.60;;;;;;5092790;28;20028;-35
2022/10/11 08:47:14;;;;;;;6.57;2.97;;;11.00;83.60;;;;;;5092892;28;20031;-34
2022/10/11 08:49:40;;;;;;;8.07;2.80;;;11.00;83.50;;;;;;5074604;28;20031;-34
2022/10/11 08:52:34;;;;;;;7.97;2.63;;;11.10;83.50;;;;;;5092141;28;20042;-32
2022/10/11 08:55:06;;;;;;;5.67;2.17;;;11.10;83.50;;;;;;5063844;28;20036;-38
2022/10/11 08:57:34;;;;;;;4.57;2.60;;;11.20;83.40;;;;;;5092572;28;20024;-34
2022/10/11 09:00:12;;;;;;;6.45;2.60;;;11.20;83.30;;;;;;5092797;28;20106;-34
2022/10/11 09:02:49;;;;;;;7.05;2.78;;;11.30;83.30;;;;;;5092418;28;20091;-33
2022/10/11 09:05:16;;;;;;;6.20;2.38;;;11.30;83.10;;;;;;5074246;28;20048;-32
2022/10/11 09:07:59;;;;;;;4.22;2.70;;;11.40;83.10;;;;;;5092942;28;20020;-35
2022/10/11 09:10:34;;;;;;;5.15;2.65;;;11.40;82.90;;;;;;5092479;28;20083;-33
2022/10/11 09:13:30;;;;;;;7.65;2.65;;;11.50;82.90;;;;;;5092206;28;20487;-33
2022/10/11 09:16:38;;;;;;;6.63;2.60;;;11.50;82.70;;;;;;5092045;28;20082;-37
2022/10/11 09:19:26;;;;;;;4.25;2.20;;;11.60;82.60;;;;;;5091984;28;20016;-32
2022/10/11 09:22:31;;;;;;;6.22;2.47;;;11.70;82.50;;;;;;5092531;28;20070;-33
2022/10/11 09:25:05;;;;;;;6.72;2.70;;;11.80;82.40;;;;;;5091764;28;20027;-33
2022/10/11 09:27:35;;;;;;;6.15;2.55;;;11.80;82.20;;;;;;5092208;28;20070;-32
2022/10/11 09:30:16;;;;;;;5.65;2.40;;;11.90;82.20;;;;;;5091964;28;20024;-34
2022/10/11 09:32:46;;;;;;;6.03;2.53;;;12.00;82.10;;;;;;5092240;28;20066;-33
2022/10/11 09:35:21;;;;;;;6.53;2.70;;;12.10;82.00;;;;;;5091960;28;20081;-33
2022/10/11 09:38:13;;;;;;;6.45;2.72;;;12.10;81.80;;;;;;5091645;28;20506;-33
2022/10/11 09:40:50;;;;;;;8.18;2.90;;;12.20;81.80;;;;;;5091639;28;20471;-33
2022/10/11 09:43:17;;;;;;;4.75;2.30;;;12.30;81.70;;;;;;5092081;28;20032;-33
2022/10/11 09:45:45;;;;;;;5.82;2.63;;;12.30;81.60;;;;;;5091828;28;20431;-33
2022/10/11 09:48:21;;;;;;;8.48;2.60;;;12.30;81.50;;;;;;5091462;28;20532;-33
2022/10/11 09:50:48;;;;;;;7.38;2.80;;;12.40;81.40;;;;;;5091207;28;20024;-33
2022/10/11 09:53:14;;;;;;;9.02;2.60;;;12.40;81.30;;;;;;5091381;28;20075;-33
2022/10/11 09:55:44;;;;;;;10.05;2.92;;;12.50;81.20;;;;;;5073074;28;20486;-34
2022/10/11 09:58:33;;;;;;;6.50;3.00;;;12.60;81.10;;;;;;5091418;28;20375;-34
2022/10/11 10:01:03;;;;;;;9.23;3.03;;;12.60;80.90;;;;;;5091527;28;20028;-33
2022/10/11 10:03:32;;;;;;;8.15;2.53;;;12.70;80.80;;;;;;5090415;28;20020;-33
2022/10/11 10:06:16;;;;;;;6.13;2.63;;;12.80;80.70;;;;;;5091078;28;20109;-32
2022/10/11 10:08:44;;;;;;;7.60;2.60;;;12.90;80.50;;;;;;5091352;28;20032;-32
2022/10/11 10:11:10;;;;;;;7.32;2.10;;;12.90;80.30;;;;;;5091434;28;20031;-33
2022/10/11 10:13:55;;;;;;;7.75;2.10;;;13.00;80.10;;;;;;5091098;28;20104;-33
2022/10/11 10:16:28;;;;;;;8.82;2.10;;;13.10;79.90;;;;;;5091017;28;20082;-33
2022/10/11 10:18:55;;;;;;;;;;;13.20;79.80;;;;;;5091538;28;20046;-33
2022/10/11 10:21:34;;;;;;;11.15;2.47;;;13.20;79.70;;;;;;5091100;28;19908;-33
2022/10/11 10:24:04;;;;;;;5.80;2.00;;;13.20;79.50;;;;;;5091122;28;20024;-33
2022/10/11 10:26:32;;;;;;;8.45;2.40;;;13.30;79.50;;;;;;5091135;28;20027;-33
2022/10/11 10:29:15;;;;;;;5.35;2.38;;;13.30;79.20;;;;;;5090967;28;20470;-33
2022/10/11 10:31:49;;;;;;;7.20;2.00;;;13.40;79.10;;;;;;5091116;28;20325;-43
2022/10/11 10:34:19;;;;;;;7.97;2.30;;;13.50;78.80;;;;;;5090932;28;20020;-33
2022/10/11 10:36:52;;;;;;;8.68;2.00;;;13.50;78.50;;;;;;5091193;28;20475;-32
2022/10/11 10:39:43;;;;;;;7.47;2.10;;;13.60;78.30;;;;;;5090902;28;20028;-33
2022/10/11 10:42:15;;;;;;;6.30;1.90;;;13.60;78.00;;;;;;5090818;28;20157;-33
2022/10/11 10:44:41;;;;;;;7.50;1.80;;;13.70;77.90;;;;;;5090792;28;20017;-34
2022/10/11 10:47:39;;;;;;;7.03;1.90;;;13.70;77.50;;;;;;5091128;28;20464;-34
2022/10/11 10:50:12;;;;;;;9.07;1.98;;;13.80;77.00;;;;;;5090900;28;20028;-32
2022/10/11 10:52:46;;;;;;;7.75;1.55;;;13.80;76.60;;;;;;5072373;28;20031;-31
2022/10/11 10:55:40;;;;;;;5.20;1.92;;;13.90;76.70;;;;;;5072555;28;20033;-33
2022/10/11 10:58:26;;;;;;;5.55;1.60;;;13.90;76.30;;;;;;5090924;28;20540;-32
2022/10/11 11:01:01;;;;;;;6.90;1.52;;;14.00;76.10;;;;;;5090560;28;20390;-33
2022/10/11 11:03:46;;;;;;;6.95;1.90;;;14.00;75.60;;;;;;5090689;28;20016;-31
2022/10/11 11:06:50;;;;;;;7.53;1.55;;;14.10;75.30;;;;;;5090694;28;20066;-32
2022/10/11 11:09:19;;;;;;;;;;;14.10;75.00;;;;;;5079756;28;20032;-32
2022/10/11 11:11:56;;;;;;;6.20;1.50;;;14.20;74.60;;;;;;5090626;28;19905;-33
2022/10/11 11:14:38;;;;;;;6.93;1.70;;;14.20;74.70;;;;;;5092360;28;20031;-33
2022/10/11 11:17:26;;;;;;;5.18;1.40;;;14.20;74.30;;;;;;5094761;28;20101;-32
2022/10/11 11:19:59;;;;;;;5.15;1.73;;;14.30;74.00;;;;;;5094437;28;20480;-33
2022/10/11 11:22:44;;;;;;;5.28;1.52;;;14.40;73.90;;;;;;5094624;28;20020;-33
2022/10/11 11:25:23;;;;;;;6.38;1.70;;;14.50;73.30;;;;;;5094713;28;20104;-34
2022/10/11 11:27:51;;;;;;;6.40;1.65;;;14.50;73.10;;;;;;5094669;28;20069;-33
2022/10/11 11:30:50;;;;;;;8.15;2.42;;;14.60;72.80;;;;;;5094433;28;20020;-35
2022/10/11 11:33:51;;;;;;;6.53;2.15;;;14.70;72.30;;;;;;5094453;28;20483;-35
2022/10/11 11:36:25;;;;;;;8.82;2.00;;;14.80;72.00;;;;;;5094209;28;20040;-34
2022/10/11 11:38:56;;;;;;;8.30;1.65;;;15.00;72.00;;;;;;5094291;28;20028;-34
2022/10/11 11:41:27;;;;;;;5.45;1.60;;;15.10;71.80;;;;;;5094384;28;20016;-33
2022/10/11 11:44:10;;;;;;;5.72;2.00;;;15.20;71.60;;;;;;5075883;28;20096;-35
2022/10/11 11:47:05;;;;;;;7.10;1.50;;;15.30;71.30;;;;;;5094147;28;20089;-36
2022/10/11 11:49:35;;;;;;;6.63;1.60;;;15.50;71.10;;;;;;5092338;28;20063;-34
2022/10/11 11:52:03;;;;;;;3.53;1.40;;;15.60;71.00;;;;;;5093855;28;20471;-33
2022/10/11 11:54:38;;;;;;;7.25;1.60;;;15.70;70.80;;;;;;5093210;28;20119;-34
2022/10/11 11:57:07;;;;;;;4.72;1.60;;;15.80;70.30;;;;;;5094032;28;20035;-35
2022/10/11 11:59:43;;;;;;;4.50;1.30;;;15.80;70.20;;;;;;5094014;28;20399;-36
2022/10/11 12:02:42;;;;;;;5.35;1.73;;;15.90;70.00;;;;;;5093762;28;20032;-35
2022/10/11 12:05:15;;;;;;;6.15;1.80;;;16.00;69.80;;;;;;5093899;28;20508;-35
2022/10/11 12:07:53;;;;;;;5.25;1.70;;;16.10;69.50;;;;;;5075208;28;20028;-34
2022/10/11 12:10:33;;;;;;;6.97;1.42;;;16.20;69.30;;;;;;5093791;28;20036;-34
2022/10/11 12:13:26;;;;;;;5.70;2.08;;;16.30;69.00;;;;;;5093481;28;20028;-34
2022/10/11 12:16:19;;;;;;;8.68;1.50;;;16.50;68.90;;;;;;5093463;28;20055;-33
2022/10/11 12:18:58;;;;;;;7.85;1.75;;;16.50;68.00;;;;;;5090718;28;20040;-35
2022/10/11 12:21:30;;;;;;;9.98;2.03;;;16.60;68.10;;;;;;5093565;28;20019;-36
2022/10/11 12:24:20;;;;;;;7.22;1.55;;;16.70;67.80;;;;;;5093678;28;20028;-37
2022/10/11 12:26:49;;;;;;;5.28;1.38;;;16.70;67.30;;;;;;5083827;28;20271;-35
2022/10/11 12:29:17;;;;;;;5.13;1.27;;;16.80;67.30;;;;;;5093287;28;20062;-34
2022/10/11 12:32:03;;;;;;;5.53;1.30;;;16.80;67.10;;;;;;5093436;28;20119;-36
2022/10/11 12:34:40;;;;;;;5.22;1.40;;;16.80;66.60;;;;;;5061450;28;20050;-34
2022/10/11 12:37:18;;;;;;;4.35;1.58;;;16.70;66.60;;;;;;5093301;28;20462;-34
2022/10/11 12:39:54;;;;;;;4.80;1.38;;;16.50;66.60;;;;;;5093236;28;20408;-35
2022/10/11 12:42:26;;;;;;;3.10;1.10;;;16.40;66.80;;;;;;5092944;28;20020;-34
2022/10/11 12:45:10;;;;;;;4.35;1.45;;;16.30;66.80;;;;;;5093098;28;20028;-35
2022/10/11 12:47:46;;;;;;;4.70;1.20;;;16.30;66.80;;;;;;5092715;28;20036;-34
2022/10/11 12:50:21;;;;;;;8.45;1.33;;;16.20;66.80;;;;;;5093020;28;20493;-35
2022/10/11 12:53:08;;;;;;;5.95;1.45;;;16.10;66.70;;;;;;5092533;28;20058;-33
2022/10/11 12:55:47;;;;;;;6.15;1.40;;;16.10;66.60;;;;;;5092578;28;20498;-35
2022/10/11 12:58:40;;;;;;;4.38;1.15;;;16.00;66.60;;;;;;5092507;28;20025;-35
2022/10/11 13:01:09;;;;;;;5.43;1.17;;;16.00;66.40;;;;;;5092382;28;20038;-39
2022/10/11 13:03:43;;;;;;;8.05;1.33;;;15.90;66.40;;;;;;5074055;28;20040;-35
2022/10/11 13:06:14;;;;;;;4.57;1.27;;;15.90;66.20;;;;;;5091994;28;20507;-33
2022/10/11 13:08:43;;;;;;;4.50;1.08;;;15.90;66.20;;;;;;5092147;28;20023;-33
2022/10/11 13:11:16;;;;;;;8.25;1.30;;;15.90;66.10;;;;;;5092448;28;20489;-33
2022/10/11 13:13:48;;;;;;;10.48;1.70;;;15.90;66.00;;;;;;5092463;28;20035;-33
2022/10/11 13:16:23;;;;;;;5.95;1.25;;;15.90;65.90;;;;;;5092004;28;20051;-34